Arlington, South Dakota
Current Conditions -  °F | °C
As of 1:15 PM on Thursday 30 Oct 2014 (Local Time) from KMDS Reporting Station
Overcast Overcast  
Wind Chill: 39°   Ceiling: 1300
Heat Index: 46°   Visibility: 10mi
Dew Point: 45°   Wind: 17mph
Humidity: 93%   Direction: 350°N
Pressure: 30.16"   Gusts: 22mph
Location:  44.36°N, 97.13°W
Report Text: KMDS 301815Z AUTO 35015G19KT 10SM OVC013 08/07 A3016 RMK AO2
Loading
Personal Weather Stations






























Interactive Weather Map New forecast layout! Learn more

10-Day Weather Forecast

Advertisements
Track Severe Weather on mobile